CYZY

Mackenzie Airport

Mackenzie, British Columbia, Canada
METAR CYZY 161500Z AUTO 00000KT 9SM OVC026 M08/M10 A3044 RMK SLP359
Observed Flight Rules
Nov-16 @ 15:00 UTC (an hour ago) Marginal Visual Flight Rules
Visibility Clouds
9 miles
  • Overcast at 2,600' AGL
Temperatures Readings
Current -8°C / 18°F
Dewpoint -10°C / 14°F
Humidity 86%
Altimeter 30.44" Hg
Pressure 1035.9 hPa
Elevation 690
METAR CYZY 161500Z AUTO 00000KT 9SM OVC026 M08/M10 A3044 RMK SLP359
Observed Flight Rules
Nov-16 @ 15:00 UTC
(an hour ago)
MVFR
Clouds
  • Overcast at 2,600' AGL
Temperature Dewpoint
-8°C / 18°F -10°C / 14°F
Humidity Altimeter Pressure
86% 30.44" Hg 1035.9 hPa